Time;durP1;ratioP1;P1;durP2;ratioP2;P2;SDS_P1;SDS_P2;PMS_P1;PMS_P2;Temp;Humidity;BMP_temperature;BMP_pressure;BME280_temperature;BME280_humidity;BME280_pressure;Samples;Min_cycle;Max_cycle;Signal;HPM_P1;HPM_P2
2022/11/19 00:00:44;;;;;;;13.55;8.45;;;1.00;99.90;;;;;;5098320;28;20369;-79
2022/11/19 00:03:13;;;;;;;15.45;8.75;;;2.30;99.90;;;;;;5097733;28;20126;-79
2022/11/19 00:05:44;;;;;;;12.57;8.15;;;1.10;99.90;;;;;;5097467;28;20040;-79
2022/11/19 00:08:11;;;;;;;11.77;6.93;;;1.00;99.90;;;;;;5098044;28;20123;-79
2022/11/19 00:10:38;;;;;;;14.02;8.23;;;2.40;99.90;;;;;;5097493;28;20176;-78
2022/11/19 00:13:05;;;;;;;12.18;7.47;;;1.00;99.90;;;;;;5097911;28;20047;-79
2022/11/19 00:15:33;;;;;;;12.13;8.05;;;1.00;99.90;;;;;;5097824;28;20409;-78
2022/11/19 00:17:59;;;;;;;14.52;8.40;;;1.00;99.90;;;;;;5097245;28;20064;-78
2022/11/19 00:20:25;;;;;;;11.75;7.88;;;1.00;99.90;;;;;;5097334;28;20048;-78
2022/11/19 00:22:53;;;;;;;10.18;7.60;;;1.00;99.90;;;;;;5097124;28;20437;-79
2022/11/19 00:25:19;;;;;;;13.90;7.97;;;0.90;99.90;;;;;;5097483;28;20105;-78
2022/11/19 00:27:46;;;;;;;11.60;7.10;;;2.60;99.90;;;;;;5097219;28;20484;-79
2022/11/19 00:30:12;;;;;;;14.07;7.67;;;1.80;99.90;;;;;;5097534;28;20040;-78
2022/11/19 00:32:37;;;;;;;10.20;6.95;;;1.00;99.90;;;;;;5096093;28;20048;-79
2022/11/19 00:35:04;;;;;;;10.50;6.85;;;0.90;99.90;;;;;;5097035;28;20062;-78
2022/11/19 00:37:29;;;;;;;11.73;7.17;;;0.90;99.90;;;;;;5096964;28;20051;-79
2022/11/19 00:39:55;;;;;;;11.20;6.95;;;1.10;99.90;;;;;;5096618;28;20036;-78
2022/11/19 00:42:21;;;;;;;9.18;6.47;;;0.80;99.90;;;;;;5097057;28;20101;-78
2022/11/19 00:44:46;;;;;;;10.73;6.78;;;0.90;99.90;;;;;;5096712;28;20468;-79
2022/11/19 00:47:12;;;;;;;8.43;5.88;;;1.00;99.90;;;;;;5096492;28;20036;-80
2022/11/19 00:49:38;;;;;;;8.85;5.95;;;1.20;99.90;;;;;;5096819;28;20110;-78
2022/11/19 00:52:04;;;;;;;7.47;5.35;;;0.90;99.90;;;;;;5096807;28;20093;-80
2022/11/19 00:54:30;;;;;;;7.68;5.10;;;1.00;99.90;;;;;;5096586;28;20547;-79
2022/11/19 00:56:55;;;;;;;8.07;5.60;;;0.90;99.90;;;;;;5096607;28;20131;-79
2022/11/19 00:59:21;;;;;;;6.95;4.90;;;0.80;99.90;;;;;;5095193;28;20054;-79
2022/11/19 01:01:46;;;;;;;7.55;5.07;;;0.50;99.90;;;;;;5096409;28;20051;-78
2022/11/19 01:04:12;;;;;;;6.90;4.70;;;0.80;99.90;;;;;;5096533;28;20502;-80
2022/11/19 01:06:39;;;;;;;6.18;4.65;;;0.70;99.90;;;;;;5096313;28;20365;-79
2022/11/19 01:09:05;;;;;;;9.27;5.90;;;0.70;99.90;;;;;;5095544;28;20162;-79
2022/11/19 01:11:33;;;;;;;7.80;5.25;;;0.80;99.90;;;;;;5096444;28;20643;-79
2022/11/19 01:14:00;;;;;;;7.65;5.43;;;2.40;99.90;;;;;;5096212;28;20211;-78
2022/11/19 01:16:30;;;;;;;7.72;5.22;;;0.70;99.90;;;;;;5096262;28;20067;-79
2022/11/19 01:18:56;;;;;;;8.80;4.95;;;0.70;99.90;;;;;;5096210;28;20079;-79
2022/11/19 01:21:25;;;;;;;6.40;4.70;;;0.60;99.90;;;;;;5096179;28;20480;-80
2022/11/19 01:23:50;;;;;;;7.68;4.82;;;0.60;99.90;;;;;;5095905;28;20048;-78
2022/11/19 01:26:17;;;;;;;8.52;5.47;;;1.30;99.90;;;;;;5095990;28;20048;-78
2022/11/19 01:28:43;;;;;;;6.75;4.78;;;2.50;99.90;;;;;;5095831;28;20476;-79
2022/11/19 01:31:17;;;;;;;7.28;4.20;;;0.50;99.90;;;;;;5096273;28;20044;-79
2022/11/19 01:33:43;;;;;;;6.30;4.60;;;0.40;99.90;;;;;;5096046;28;20107;-79
2022/11/19 01:36:15;;;;;;;5.85;4.53;;;0.40;99.90;;;;;;5096003;28;20036;-78
2022/11/19 01:38:41;;;;;;;7.68;4.47;;;-0.70;99.90;;;;;;5095818;28;20048;-79
2022/11/19 01:41:07;;;;;;;6.57;4.30;;;0.40;99.90;;;;;;5095751;28;20109;-78
2022/11/19 01:43:47;;;;;;;6.38;4.82;;;0.90;99.90;;;;;;5095716;28;20035;-79
2022/11/19 01:46:15;;;;;;;7.88;5.00;;;0.40;99.90;;;;;;5095942;28;20044;-80
2022/11/19 01:49:11;;;;;;;8.27;5.43;;;0.40;99.90;;;;;;5095671;28;20175;-79
2022/11/19 01:51:41;;;;;;;7.00;4.80;;;0.30;99.90;;;;;;5095725;28;20071;-78
2022/11/19 01:54:14;;;;;;;6.80;4.80;;;1.10;99.90;;;;;;5095729;28;20052;-79
2022/11/19 01:56:40;;;;;;;6.32;5.10;;;1.20;99.90;;;;;;5094559;28;20071;-78
2022/11/19 01:59:11;;;;;;;7.20;4.80;;;0.30;99.90;;;;;;5094138;28;20090;-79
2022/11/19 02:01:37;;;;;;;6.93;4.78;;;0.20;99.90;;;;;;5095196;28;20040;-79
2022/11/19 02:04:05;;;;;;;7.25;4.95;;;0.10;99.90;;;;;;5095270;28;20097;-79
2022/11/19 02:06:31;;;;;;;8.02;5.45;;;0.30;99.90;;;;;;5095741;28;20048;-78
2022/11/19 02:08:57;;;;;;;8.05;5.00;;;1.90;99.90;;;;;;5095550;28;20044;-78
2022/11/19 02:11:41;;;;;;;7.50;4.90;;;0.30;99.90;;;;;;5095583;28;20044;-78
2022/11/19 02:14:47;;;;;;;6.25;4.90;;;0.10;99.90;;;;;;5095074;28;20203;-79
2022/11/19 02:17:39;;;;;;;5.68;4.35;;;0.20;99.90;;;;;;5095316;28;20066;-78
2022/11/19 02:20:14;;;;;;;6.57;4.55;;;-0.20;99.90;;;;;;5063788;28;20502;-79
2022/11/19 02:23:01;;;;;;;5.70;4.45;;;0.00;99.90;;;;;;5095534;28;20388;-79
2022/11/19 02:25:41;;;;;;;6.60;5.07;;;0.00;99.90;;;;;;5094603;28;20492;-79
2022/11/19 02:28:27;;;;;;;7.68;5.00;;;-0.10;99.90;;;;;;5095000;28;20044;-78
2022/11/19 02:31:10;;;;;;;6.70;5.03;;;-0.10;99.90;;;;;;5094072;28;20044;-78
2022/11/19 02:33:40;;;;;;;7.70;5.20;;;-0.20;99.90;;;;;;5095083;28;20055;-79
2022/11/19 02:36:06;;;;;;;6.78;5.00;;;0.80;99.90;;;;;;5093657;28;20044;-78
2022/11/19 02:39:21;;;;;;;6.70;4.93;;;-0.40;99.90;;;;;;5094822;28;20070;-78
2022/11/19 02:41:58;;;;;;;7.97;5.45;;;-0.30;99.90;;;;;;5087056;28;20048;-80
2022/11/19 02:45:01;;;;;;;8.75;5.05;;;-0.30;99.90;;;;;;5093688;28;20048;-79
2022/11/19 02:47:34;;;;;;;6.60;5.05;;;-0.40;99.90;;;;;;5094292;28;20484;-78
2022/11/19 02:50:22;;;;;;;8.75;5.30;;;-0.60;99.90;;;;;;5095176;28;20048;-80
2022/11/19 02:52:48;;;;;;;5.45;3.97;;;-0.20;99.90;;;;;;5095066;28;20505;-80
2022/11/19 02:55:18;;;;;;;7.70;5.03;;;-0.60;99.90;;;;;;5094936;28;20178;-79
2022/11/19 02:58:03;;;;;;;9.88;5.95;;;-0.60;99.90;;;;;;5094591;28;20036;-80
2022/11/19 03:06:17;;;;;;;7.00;5.32;;;0.30;99.90;;;;;;5094316;28;20087;-78
2022/11/19 03:08:44;;;;;;;8.35;5.97;;;-0.70;99.90;;;;;;5094574;28;20391;-80
2022/11/19 03:11:10;;;;;;;6.10;4.90;;;-0.50;99.90;;;;;;5094794;28;20052;-78
2022/11/19 03:16:40;;;;;;;7.53;5.57;;;-0.80;99.90;;;;;;5094290;28;20396;-80
2022/11/19 03:19:13;;;;;;;8.18;5.32;;;-0.90;99.90;;;;;;5094123;28;20040;-78
2022/11/19 03:21:55;;;;;;;8.35;5.38;;;-0.90;99.90;;;;;;5094203;28;20461;-80
2022/11/19 03:24:41;;;;;;;8.43;5.50;;;-0.90;99.90;;;;;;5093109;28;20490;-78
2022/11/19 03:27:15;;;;;;;7.20;4.47;;;-0.90;99.90;;;;;;5093990;28;20257;-79
2022/11/19 03:29:45;;;;;;;10.52;5.10;;;-0.90;99.90;;;;;;5094352;28;20448;-81
2022/11/19 03:32:17;;;;;;;6.28;4.70;;;-0.90;99.90;;;;;;5093578;28;20135;-81
2022/11/19 03:34:45;;;;;;;6.70;5.10;;;-1.30;99.90;;;;;;5093750;28;20467;-80
2022/11/19 03:37:14;;;;;;;7.60;5.47;;;-1.50;99.90;;;;;;5094134;28;20048;-79
2022/11/19 03:39:41;;;;;;;9.52;5.70;;;-1.30;99.90;;;;;;5093843;28;20055;-79
2022/11/19 03:42:10;;;;;;;9.32;5.53;;;-0.70;99.90;;;;;;5093920;28;20043;-79
2022/11/19 03:44:43;;;;;;;7.55;5.15;;;-0.90;99.90;;;;;;5093715;28;20141;-79
2022/11/19 03:47:13;;;;;;;8.10;5.22;;;-1.40;99.90;;;;;;5075929;28;20055;-78
2022/11/19 03:49:43;;;;;;;6.93;5.10;;;-0.20;99.90;;;;;;5093903;28;20130;-80
2022/11/19 03:52:12;;;;;;;7.72;5.00;;;-1.00;99.90;;;;;;5094291;28;20052;-81
2022/11/19 03:54:39;;;;;;;6.40;4.43;;;-1.40;99.90;;;;;;5093933;28;20470;-80
2022/11/19 03:57:07;;;;;;;7.93;4.75;;;-1.00;99.90;;;;;;5075970;28;20040;-79
2022/11/19 03:59:33;;;;;;;9.80;5.70;;;-1.00;99.90;;;;;;5093645;28;20044;-79
2022/11/19 04:02:03;;;;;;;7.93;4.87;;;-1.00;99.90;;;;;;5093779;28;20079;-80
2022/11/19 04:04:37;;;;;;;6.95;5.07;;;-1.10;99.90;;;;;;5093289;28;20487;-81
2022/11/19 04:07:13;;;;;;;6.00;4.70;;;-1.10;99.90;;;;;;5093745;28;20100;-79
2022/11/19 04:09:40;;;;;;;7.40;4.57;;;-1.10;99.90;;;;;;5093742;28;20083;-80
2022/11/19 04:12:07;;;;;;;6.47;4.80;;;-1.20;99.90;;;;;;5095349;28;20141;-79
2022/11/19 04:14:33;;;;;;;7.85;5.57;;;-0.50;99.90;;;;;;5096403;28;20377;-80
2022/11/19 04:16:59;;;;;;;8.10;4.93;;;-1.10;99.90;;;;;;5093546;28;20051;-79
2022/11/19 04:19:24;;;;;;;8.75;6.00;;;-0.60;99.90;;;;;;5093351;28;20491;-80
2022/11/19 04:21:50;;;;;;;8.00;5.93;;;-0.10;99.90;;;;;;5093503;28;20038;-80
2022/11/19 04:24:16;;;;;;;6.72;4.93;;;-0.50;99.90;;;;;;5093570;28;20099;-80
2022/11/19 04:26:42;;;;;;;9.00;5.23;;;-0.90;99.90;;;;;;5093722;28;20461;-80
2022/11/19 04:29:07;;;;;;;7.50;5.20;;;-1.40;99.90;;;;;;5092354;28;20305;-79
2022/11/19 04:31:33;;;;;;;6.38;4.97;;;-1.20;99.90;;;;;;5092548;28;20032;-80
2022/11/19 04:33:59;;;;;;;7.45;5.53;;;-1.90;99.90;;;;;;5093328;28;20044;-80
2022/11/19 04:36:24;;;;;;;9.13;5.00;;;-1.30;99.90;;;;;;5093292;28;20047;-80
2022/11/19 04:38:50;;;;;;;7.97;5.65;;;-1.30;99.90;;;;;;5093809;28;20042;-80
2022/11/19 04:41:15;;;;;;;8.52;5.22;;;-1.30;99.90;;;;;;5093326;28;20384;-79
2022/11/19 04:43:41;;;;;;;7.78;4.95;;;-1.30;99.90;;;;;;5093255;28;20048;-80
2022/11/19 04:46:06;;;;;;;8.75;5.43;;;-1.70;99.90;;;;;;5097014;28;20096;-80
2022/11/19 04:48:32;;;;;;;6.85;5.53;;;-2.00;99.90;;;;;;5096993;28;20043;-81
2022/11/19 04:50:58;;;;;;;6.68;5.10;;;-1.40;99.90;;;;;;5097590;28;20055;-80
2022/11/19 04:53:23;;;;;;;7.72;5.28;;;-1.40;99.90;;;;;;5097396;28;20484;-82
2022/11/19 04:55:49;;;;;;;9.52;6.00;;;-1.40;99.90;;;;;;5096311;28;20054;-81
2022/11/19 04:58:14;;;;;;;7.78;5.40;;;-1.40;99.90;;;;;;5097200;28;20044;-80
2022/11/19 05:00:40;;;;;;;8.27;5.68;;;-1.40;99.90;;;;;;5097615;28;20071;-81
2022/11/19 05:03:05;;;;;;;8.02;5.35;;;-0.50;99.90;;;;;;5097301;28;20040;-80
2022/11/19 05:05:31;;;;;;;8.27;5.95;;;-1.40;99.90;;;;;;5096638;28;20040;-81
2022/11/19 05:07:57;;;;;;;8.32;5.40;;;-1.50;99.90;;;;;;5095815;28;20101;-81
2022/11/19 05:10:22;;;;;;;10.70;5.75;;;-1.50;99.90;;;;;;5096481;28;20048;-80
2022/11/19 05:12:48;;;;;;;8.35;5.88;;;-2.00;99.90;;;;;;5096123;28;20067;-80
2022/11/19 05:15:14;;;;;;;9.20;6.15;;;-1.50;99.90;;;;;;5099655;28;20044;-80
2022/11/19 05:17:39;;;;;;;8.43;6.03;;;-1.60;99.90;;;;;;5095426;28;20047;-81
2022/11/19 05:20:06;;;;;;;9.27;6.00;;;-1.90;99.90;;;;;;5096359;28;20046;-81
2022/11/19 05:22:31;;;;;;;8.60;6.15;;;-1.60;99.90;;;;;;5096388;28;20388;-79
2022/11/19 05:24:57;;;;;;;8.93;5.72;;;-1.60;99.90;;;;;;5096374;28;20063;-80
2022/11/19 05:27:23;;;;;;;9.93;6.22;;;-1.70;99.90;;;;;;5096386;28;20444;-81
2022/11/19 05:29:49;;;;;;;10.40;6.25;;;-1.60;99.90;;;;;;5094856;28;20048;-80
2022/11/19 05:32:14;;;;;;;8.43;5.82;;;-1.60;99.90;;;;;;5096394;28;20047;-81
2022/11/19 05:34:40;;;;;;;9.27;6.80;;;-1.60;99.90;;;;;;5095602;28;20048;-80
2022/11/19 05:37:05;;;;;;;11.25;6.78;;;-1.70;99.90;;;;;;5096510;28;20044;-80
2022/11/19 05:39:31;;;;;;;9.93;6.57;;;-1.70;99.90;;;;;;5096012;28;20085;-81
2022/11/19 05:41:56;;;;;;;10.25;6.55;;;-2.10;99.90;;;;;;5094756;28;20091;-80
2022/11/19 05:44:22;;;;;;;10.63;7.15;;;-1.70;99.90;;;;;;5095678;28;20048;-81
2022/11/19 05:46:48;;;;;;;10.93;6.80;;;-1.70;99.90;;;;;;5095779;28;20047;-80
2022/11/19 05:49:13;;;;;;;11.93;6.35;;;-1.70;99.90;;;;;;5095802;28;20131;-81
2022/11/19 05:51:39;;;;;;;12.45;7.00;;;-1.70;99.90;;;;;;5094335;28;20047;-80
2022/11/19 05:54:04;;;;;;;11.82;7.30;;;-1.80;99.90;;;;;;5093807;28;20047;-80
2022/11/19 05:56:30;;;;;;;10.70;7.13;;;-1.70;99.90;;;;;;5093685;28;20040;-81
2022/11/19 05:58:55;;;;;;;12.55;7.10;;;-1.70;99.90;;;;;;5095517;28;20051;-80
2022/11/19 06:01:26;;;;;;;14.63;7.45;;;-1.80;99.90;;;;;;5095619;28;20476;-81
2022/11/19 06:03:51;;;;;;;14.52;7.72;;;-1.80;99.90;;;;;;5095414;28;20385;-80
2022/11/19 06:06:17;;;;;;;12.13;7.82;;;-1.80;99.90;;;;;;5095528;28;20051;-80
2022/11/19 06:08:43;;;;;;;12.32;7.78;;;-1.80;99.90;;;;;;5095379;28;20044;-80
2022/11/19 06:11:46;;;;;;;11.85;7.50;;;-1.80;99.90;;;;;;5095586;28;20040;-81
2022/11/19 06:13:54;;;;;;;11.60;7.72;;;-1.80;99.90;;;;;;5095758;28;20059;-80
2022/11/19 06:16:19;;;;;;;6.68;5.63;;;-1.80;99.90;;;;;;5099760;28;20052;-79
2022/11/19 06:18:45;;;;;;;9.40;6.72;;;-1.80;99.90;;;;;;5094939;28;20051;-80
2022/11/19 06:21:11;;;;;;;15.10;8.43;;;;;;;;;;5095637;28;20047;-80
2022/11/19 06:23:36;;;;;;;11.57;8.10;;;-1.90;99.90;;;;;;5094949;28;20400;-79
2022/11/19 06:26:02;;;;;;;11.90;7.38;;;-1.90;99.90;;;;;;5095032;28;20052;-79
2022/11/19 06:28:28;;;;;;;14.38;8.23;;;-1.90;99.90;;;;;;5095100;28;20048;-82
2022/11/19 06:30:53;;;;;;;14.23;8.68;;;-1.90;99.90;;;;;;5094758;28;20044;-78
2022/11/19 06:33:19;;;;;;;13.57;8.10;;;-1.90;99.90;;;;;;5094773;28;20044;-80
2022/11/19 06:35:44;;;;;;;13.13;8.38;;;-1.90;99.90;;;;;;5095091;28;20046;-84
2022/11/19 06:38:10;;;;;;;12.43;7.50;;;-1.90;99.90;;;;;;5095386;28;20036;-80
2022/11/19 06:40:35;;;;;;;10.77;7.30;;;-1.90;99.90;;;;;;5094751;28;20044;-78
2022/11/19 06:43:01;;;;;;;12.00;8.18;;;-2.00;99.90;;;;;;5093945;28;20353;-79
2022/11/19 06:45:26;;;;;;;14.88;8.63;;;-1.80;99.90;;;;;;5094588;28;20040;-79
2022/11/19 06:47:52;;;;;;;11.75;8.15;;;-1.90;99.90;;;;;;5094642;28;20545;-79
2022/11/19 06:50:18;;;;;;;10.43;7.68;;;-1.90;99.90;;;;;;5094911;28;20070;-81
2022/11/19 06:52:43;;;;;;;12.68;8.35;;;-1.90;99.90;;;;;;5093532;28;20044;-77
2022/11/19 06:55:09;;;;;;;13.10;8.13;;;-2.00;99.90;;;;;;5094239;28;20044;-79
2022/11/19 06:57:35;;;;;;;13.98;7.55;;;-1.90;99.90;;;;;;5094373;28;20380;-78
2022/11/19 07:00:01;;;;;;;13.63;8.30;;;-2.00;99.90;;;;;;5094340;28;20040;-78
2022/11/19 07:02:26;;;;;;;12.48;7.75;;;-2.00;99.90;;;;;;5094336;28;20122;-77
2022/11/19 07:04:52;;;;;;;13.00;8.50;;;-2.00;99.90;;;;;;5094105;28;20370;-78
2022/11/19 07:07:17;;;;;;;11.65;8.05;;;-2.00;99.90;;;;;;5092559;28;20515;-79
2022/11/19 07:09:43;;;;;;;12.40;8.30;;;-2.00;99.90;;;;;;5094326;28;20058;-78
2022/11/19 07:12:09;;;;;;;13.82;8.18;;;-2.00;99.90;;;;;;5094121;28;20040;-79
2022/11/19 07:14:34;;;;;;;10.77;7.28;;;-2.40;99.90;;;;;;5094420;28;20048;-79
2022/11/19 07:17:00;;;;;;;12.60;7.55;;;-2.00;99.90;;;;;;5095495;28;20040;-77
2022/11/19 07:19:26;;;;;;;10.10;6.85;;;-2.00;99.90;;;;;;5093886;28;20040;-77
2022/11/19 07:21:51;;;;;;;11.98;8.05;;;-2.00;99.90;;;;;;5094063;28;20079;-78
2022/11/19 07:24:17;;;;;;;12.25;8.25;;;-2.00;99.90;;;;;;5093979;28;20060;-79
2022/11/19 07:26:44;;;;;;;11.82;8.23;;;-1.80;99.90;;;;;;5094090;28;20126;-78
2022/11/19 07:29:11;;;;;;;12.48;7.95;;;-1.90;99.90;;;;;;5094275;28;20080;-78
2022/11/19 07:31:37;;;;;;;13.95;8.48;;;-1.90;99.90;;;;;;5093803;28;20139;-83
2022/11/19 07:34:06;;;;;;;13.40;8.52;;;-1.90;99.90;;;;;;5076225;28;20083;-80
2022/11/19 07:36:31;;;;;;;12.13;8.07;;;-2.00;99.90;;;;;;5093964;28;20047;-79
2022/11/19 07:38:57;;;;;;;14.52;8.43;;;-0.70;99.90;;;;;;5094281;28;20044;-78
2022/11/19 07:44:06;;;;;;;11.52;7.60;;;-1.90;99.90;;;;;;5093974;28;20051;-79
2022/11/19 07:46:32;;;;;;;11.32;7.88;;;-1.70;99.90;;;;;;5093437;28;20032;-80
2022/11/19 07:48:58;;;;;;;15.82;9.35;;;-1.90;99.90;;;;;;5093973;28;20044;-82
2022/11/19 07:51:24;;;;;;;10.70;7.37;;;-1.90;99.90;;;;;;5093615;28;20376;-78
2022/11/19 07:53:50;;;;;;;11.20;6.70;;;-1.90;99.90;;;;;;5092983;28;20047;-80
2022/11/19 07:56:16;;;;;;;12.33;7.97;;;-1.80;99.90;;;;;;5093638;28;20044;-79
2022/11/19 07:58:42;;;;;;;12.55;7.93;;;-2.00;99.90;;;;;;5093440;28;20044;-81
2022/11/19 08:01:13;;;;;;;10.70;6.75;;;-1.80;99.90;;;;;;5092619;28;20050;-79
2022/11/19 08:03:41;;;;;;;10.45;6.55;;;-1.80;99.90;;;;;;5094108;28;20048;-79
2022/11/19 08:06:07;;;;;;;11.00;8.10;;;-1.70;99.90;;;;;;5093470;28;20476;-80
2022/11/19 08:08:33;;;;;;;11.10;7.33;;;-1.70;99.90;;;;;;5093537;28;20048;-80
2022/11/19 08:11:04;;;;;;;12.77;7.47;;;-1.70;99.90;;;;;;5093542;28;20276;-82
2022/11/19 08:13:30;;;;;;;9.00;5.82;;;-1.80;99.90;;;;;;5093498;28;20051;-79
2022/11/19 08:16:04;;;;;;;10.75;6.97;;;-1.60;99.90;;;;;;5093389;28;20040;-81
2022/11/19 08:18:30;;;;;;;13.18;7.47;;;-1.40;99.90;;;;;;5100932;28;20040;-80
2022/11/19 08:21:03;;;;;;;10.48;6.97;;;-1.90;99.90;;;;;;5097838;28;20476;-77
2022/11/19 08:23:29;;;;;;;12.25;7.85;;;-1.50;99.90;;;;;;5097324;28;20051;-78
2022/11/19 08:25:54;;;;;;;12.13;7.10;;;-1.40;99.90;;;;;;5096712;28;20051;-80
2022/11/19 08:28:20;;;;;;;11.52;7.45;;;-1.40;99.90;;;;;;5097204;28;20052;-77
2022/11/19 08:30:46;;;;;;;8.53;6.60;;;-1.30;99.90;;;;;;5097205;28;20040;-75
2022/11/19 08:33:12;;;;;;;10.90;6.25;;;-1.30;99.90;;;;;;5097231;28;20051;-77
2022/11/19 08:35:38;;;;;;;11.68;7.43;;;-1.20;99.90;;;;;;5097232;28;20051;-80
2022/11/19 08:38:03;;;;;;;10.93;6.80;;;-1.20;99.90;;;;;;5097063;28;20344;-78
2022/11/19 08:40:29;;;;;;;10.55;7.07;;;-1.10;99.90;;;;;;5097033;28;20055;-80
2022/11/19 08:43:00;;;;;;;10.50;6.55;;;-1.10;99.90;;;;;;5096919;28;20044;-79
2022/11/19 08:45:37;;;;;;;9.90;6.70;;;-1.10;99.90;;;;;;5097123;28;20499;-78
2022/11/19 08:48:05;;;;;;;11.23;6.80;;;-1.00;99.90;;;;;;5096862;28;20036;-77
2022/11/19 08:50:32;;;;;;;10.52;6.68;;;-1.20;99.90;;;;;;5096914;28;20040;-77
2022/11/19 08:53:00;;;;;;;11.65;7.15;;;-1.00;99.90;;;;;;5096850;28;20058;-77
2022/11/19 08:55:28;;;;;;;10.13;6.97;;;-0.90;99.90;;;;;;5096718;28;20036;-78
2022/11/19 08:58:01;;;;;;;11.45;7.15;;;-0.90;99.90;;;;;;5097031;28;20123;-80
2022/11/19 09:00:27;;;;;;;11.63;7.38;;;-0.80;99.90;;;;;;5095666;28;20048;-80
2022/11/19 09:02:53;;;;;;;11.70;7.23;;;-0.80;99.90;;;;;;5096730;28;20052;-80
2022/11/19 09:05:19;;;;;;;11.57;7.78;;;-0.80;99.90;;;;;;5096671;28;20062;-80
2022/11/19 09:07:45;;;;;;;11.50;7.70;;;-0.70;99.90;;;;;;5096357;28;20106;-79
2022/11/19 09:10:10;;;;;;;10.43;6.72;;;-0.60;99.90;;;;;;5095350;28;20098;-78
2022/11/19 09:12:36;;;;;;;11.80;7.60;;;0.30;99.90;;;;;;5096310;28;20082;-79
2022/11/19 09:15:03;;;;;;;17.10;7.93;;;-0.60;99.90;;;;;;5096373;28;20494;-76
2022/11/19 09:17:28;;;;;;;8.52;6.10;;;-0.60;99.90;;;;;;5096847;28;20039;-78
2022/11/19 09:19:54;;;;;;;10.70;6.97;;;-0.60;99.90;;;;;;5096832;28;20048;-80
2022/11/19 09:22:20;;;;;;;13.55;8.00;;;-0.50;99.90;;;;;;5096081;28;20048;-76
2022/11/19 09:24:45;;;;;;;11.10;7.00;;;-0.50;99.90;;;;;;5096075;28;20059;-79
2022/11/19 09:27:11;;;;;;;10.98;6.50;;;-0.40;99.90;;;;;;5096332;28;20036;-81
2022/11/19 09:29:37;;;;;;;11.50;7.03;;;-0.40;99.90;;;;;;5076105;28;20067;-82
2022/11/19 09:32:03;;;;;;;12.52;7.25;;;-0.40;99.90;;;;;;5095548;28;20449;-79
2022/11/19 09:34:28;;;;;;;10.90;6.68;;;-0.30;99.90;;;;;;5094448;28;20051;-78
2022/11/19 09:36:54;;;;;;;12.38;7.47;;;-0.30;99.90;;;;;;5078528;28;20071;-81
2022/11/19 09:39:20;;;;;;;14.35;7.32;;;-0.20;99.90;;;;;;5095913;28;20063;-81
2022/11/19 09:41:52;;;;;;;12.15;7.65;;;-0.20;99.90;;;;;;5094725;28;20044;-80
2022/11/19 09:44:23;;;;;;;13.05;7.45;;;-0.20;99.90;;;;;;5093516;28;20047;-79
2022/11/19 09:47:23;;;;;;;10.45;7.18;;;-0.10;99.90;;;;;;5110844;28;20036;-84
2022/11/19 09:50:09;;;;;;;11.73;7.80;;;-0.10;99.90;;;;;;5095385;28;20047;-83
2022/11/19 09:52:43;;;;;;;11.52;7.22;;;0.00;99.90;;;;;;5078125;28;20048;-78
2022/11/19 09:55:19;;;;;;;10.15;6.97;;;0.00;99.90;;;;;;5077581;28;20051;-79
2022/11/19 09:57:53;;;;;;;9.07;6.57;;;0.10;99.90;;;;;;5095806;28;20438;-78
2022/11/19 10:00:22;;;;;;;11.20;7.47;;;0.10;99.90;;;;;;5093979;28;20055;-77
2022/11/19 10:02:48;;;;;;;13.38;7.45;;;0.30;99.90;;;;;;5093985;28;20071;-79
2022/11/19 10:05:18;;;;;;;10.83;6.63;;;0.10;99.90;;;;;;5093188;28;20043;-82
2022/11/19 10:07:53;;;;;;;11.43;6.80;;;0.20;99.90;;;;;;5090516;28;20049;-81
2022/11/19 10:10:28;;;;;;;9.77;6.95;;;0.20;99.90;;;;;;5073931;28;20041;-80
2022/11/19 10:13:10;;;;;;;11.57;7.35;;;0.30;99.90;;;;;;5075184;28;20051;-76
2022/11/19 10:15:58;;;;;;;10.52;7.00;;;0.40;99.90;;;;;;5073488;28;20040;-80
2022/11/19 10:18:44;;;;;;;11.63;7.28;;;0.40;99.90;;;;;;5074850;28;20103;-80
2022/11/19 10:21:37;;;;;;;10.50;7.03;;;0.50;99.90;;;;;;5074664;28;20048;-81
2022/11/19 10:24:39;;;;;;;9.68;6.97;;;0.50;99.90;;;;;;5073862;28;20051;-81
2022/11/19 10:27:18;;;;;;;10.45;6.10;;;0.50;99.90;;;;;;5074459;28;20495;-78
2022/11/19 10:29:46;;;;;;;10.15;6.82;;;0.60;99.90;;;;;;5074628;28;20079;-79
2022/11/19 10:32:40;;;;;;;8.43;6.40;;;0.60;99.90;;;;;;5074512;28;20048;-78
2022/11/19 10:35:15;;;;;;;12.20;7.30;;;0.70;99.90;;;;;;5073130;28;20067;-79
2022/11/19 10:37:52;;;;;;;8.93;6.03;;;0.70;99.90;;;;;;5074544;28;20108;-80
2022/11/19 10:40:21;;;;;;;8.80;6.20;;;0.80;99.90;;;;;;5074537;28;20048;-80
2022/11/19 10:42:54;;;;;;;9.18;6.43;;;0.90;99.90;;;;;;5073527;28;20044;-81
2022/11/19 10:45:26;;;;;;;11.07;6.75;;;0.90;99.90;;;;;;5074196;28;20048;-81
2022/11/19 10:48:05;;;;;;;8.18;5.75;;;1.00;99.90;;;;;;5074312;28;20099;-78
2022/11/19 10:50:31;;;;;;;11.82;7.00;;;1.00;99.90;;;;;;5074118;28;20041;-81
2022/11/19 10:53:03;;;;;;;11.65;7.22;;;1.10;99.90;;;;;;5074381;28;20040;-83
2022/11/19 10:55:39;;;;;;;9.77;6.10;;;1.00;99.90;;;;;;5073444;28;20098;-83
2022/11/19 10:58:20;;;;;;;9.60;6.80;;;1.00;99.90;;;;;;5073645;28;20472;-81
2022/11/19 11:00:46;;;;;;;9.45;6.25;;;0.60;99.90;;;;;;5073990;28;20048;-82
2022/11/19 11:03:30;;;;;;;9.27;6.43;;;1.10;99.90;;;;;;5073252;28;20052;-82
2022/11/19 11:06:13;;;;;;;7.30;5.88;;;1.20;99.90;;;;;;5080051;28;20116;-81
2022/11/19 11:08:54;;;;;;;8.77;6.38;;;1.20;99.90;;;;;;5092976;28;20416;-76
2022/11/19 11:17:15;;;;;;;10.13;6.50;;;1.40;99.90;;;;;;5093864;28;20483;-79
2022/11/19 11:19:41;;;;;;;8.18;5.53;;;1.80;99.90;;;;;;5095094;28;20384;-79
2022/11/19 11:22:08;;;;;;;8.68;5.55;;;1.50;99.90;;;;;;5094205;28;20047;-77
2022/11/19 11:24:36;;;;;;;8.27;5.93;;;1.60;99.90;;;;;;5076127;28;20059;-76
2022/11/19 11:27:27;;;;;;;8.57;5.93;;;1.70;99.90;;;;;;5093973;28;20051;-79
2022/11/19 11:30:10;;;;;;;10.30;5.65;;;1.70;99.90;;;;;;5093944;28;20102;-77
2022/11/19 11:32:37;;;;;;;7.47;5.18;;;1.80;99.90;;;;;;5094378;28;20040;-79
2022/11/19 11:35:03;;;;;;;6.20;4.55;;;1.90;99.90;;;;;;5093964;28;20055;-77
2022/11/19 11:37:29;;;;;;;8.77;5.07;;;2.00;99.90;;;;;;5094440;28;20040;-79
2022/11/19 11:39:56;;;;;;;7.65;5.15;;;2.00;99.90;;;;;;5092342;28;20404;-78
2022/11/19 11:42:27;;;;;;;6.30;4.82;;;2.00;99.90;;;;;;5091942;28;20052;-77
2022/11/19 11:44:54;;;;;;;7.40;4.90;;;2.00;99.90;;;;;;5092321;28;20048;-77
2022/11/19 11:47:29;;;;;;;;;;;2.00;99.90;;;;;;5093157;28;20055;-78
2022/11/19 11:50:12;;;;;;;7.25;4.82;;;2.00;99.90;;;;;;5092823;28;19920;-78
2022/11/19 11:52:39;;;;;;;6.55;4.90;;;2.10;99.90;;;;;;5093493;28;20044;-78
2022/11/19 11:55:23;;;;;;;7.30;5.68;;;2.30;99.90;;;;;;5097310;28;20058;-79
2022/11/19 11:57:54;;;;;;;6.53;4.82;;;2.30;99.90;;;;;;5097645;28;20139;-77
2022/11/19 12:00:51;;;;;;;7.47;4.95;;;2.30;99.90;;;;;;5096849;28;20047;-78
2022/11/19 12:03:18;;;;;;;7.75;5.43;;;2.30;99.90;;;;;;5085076;28;20091;-78
2022/11/19 12:06:04;;;;;;;;;;;2.30;99.90;;;;;;5098020;28;20359;-78
2022/11/19 12:09:03;;;;;;;7.95;5.20;;;2.40;99.90;;;;;;5097955;28;19920;-77
2022/11/19 12:11:53;;;;;;;6.95;5.20;;;2.40;99.90;;;;;;5097527;28;20097;-78
2022/11/19 12:14:26;;;;;;;8.98;5.45;;;2.50;99.90;;;;;;5097925;28;20119;-77
2022/11/19 12:17:19;;;;;;;7.30;5.10;;;2.50;99.90;;;;;;5097887;28;20044;-78
2022/11/19 12:19:50;;;;;;;7.95;5.25;;;2.50;99.90;;;;;;5097667;28;20071;-78
2022/11/19 12:22:37;;;;;;;9.23;4.85;;;2.60;99.90;;;;;;5097402;28;20054;-78
2022/11/19 12:25:30;;;;;;;7.55;5.50;;;2.60;99.90;;;;;;5097063;28;20063;-78
2022/11/19 12:28:23;;;;;;;6.35;4.75;;;2.50;99.90;;;;;;5097567;28;20048;-78
2022/11/19 12:31:04;;;;;;;6.65;4.82;;;2.60;99.90;;;;;;5097062;28;20040;-78
2022/11/19 12:33:50;;;;;;;8.43;4.68;;;2.60;99.90;;;;;;5097338;28;20040;-77
2022/11/19 12:36:59;;;;;;;8.27;4.75;;;2.50;99.90;;;;;;5097548;28;20044;-77
2022/11/19 12:39:25;;;;;;;7.95;4.88;;;2.50;99.90;;;;;;5097160;28;20040;-78
2022/11/19 12:42:26;;;;;;;5.82;4.57;;;2.50;99.90;;;;;;5097029;28;20048;-77
2022/11/19 12:45:13;;;;;;;8.00;5.03;;;2.50;99.90;;;;;;5041859;28;20064;-78
2022/11/19 12:47:48;;;;;;;6.82;4.60;;;2.50;99.90;;;;;;5096925;28;20047;-78
2022/11/19 12:50:19;;;;;;;8.05;4.72;;;2.50;99.90;;;;;;5097000;28;20109;-78
2022/11/19 12:53:03;;;;;;;6.40;4.78;;;2.50;99.90;;;;;;5096964;28;20040;-77
2022/11/19 12:55:44;;;;;;;7.88;5.13;;;2.50;99.90;;;;;;5096781;28;20048;-78
2022/11/19 12:58:09;;;;;;;6.40;4.88;;;2.50;99.90;;;;;;5096019;28;20055;-77
2022/11/19 13:00:41;;;;;;;6.95;5.00;;;2.50;99.90;;;;;;5097194;28;20040;-78
2022/11/19 13:03:15;;;;;;;6.45;4.80;;;2.90;99.90;;;;;;5096989;28;20143;-78
2022/11/19 13:05:53;;;;;;;5.85;4.82;;;2.50;99.90;;;;;;5095448;28;20050;-78
2022/11/19 13:08:22;;;;;;;7.70;4.68;;;2.50;99.90;;;;;;5096574;28;20044;-78
2022/11/19 13:10:55;;;;;;;7.72;5.30;;;2.50;99.90;;;;;;5096855;28;20044;-79
2022/11/19 13:13:26;;;;;;;7.63;5.28;;;2.50;99.90;;;;;;5096484;28;20036;-78
2022/11/19 13:16:04;;;;;;;7.95;5.15;;;2.40;99.90;;;;;;5096476;28;20050;-77
2022/11/19 13:18:33;;;;;;;6.32;4.93;;;2.40;99.90;;;;;;5095661;28;20447;-79
2022/11/19 13:21:12;;;;;;;8.32;5.68;;;2.40;99.90;;;;;;5096488;28;20054;-78
2022/11/19 13:23:42;;;;;;;7.15;4.85;;;3.20;99.90;;;;;;5096822;28;20098;-77